Terminal Aerodrome Forecast
Issued by NWS Atlanta, GA

Home | Current Version | Previous Version | Text Only | Print | Product List | Glossary On
Versions: 1 2 3 4 5 6 7 8 9 10 11 12 13 14 15 16 17 18 19 20 21 22 23 24 25 26 27 28 29 30 31
670
FTUS42 KFFC 232343
TAFAHN
TAF
KAHN 232343Z 2400/2424 06010KT 5SM BR VCSH OVC010
      TEMPO 2400/2404 BKN008
     FM240800 07006KT P6SM BKN008
     FM241400 24006KT P6SM OVC012
     FM241800 26010KT P6SM VCSH BKN035=

USA.gov is the U.S. government's official web portal to all federal, state and local government web resources and services.